FDX1410 KMEM-KTPA
Flight info
| Callsign | FDX1410 |
|---|---|
| Flight time | 1h 16m |
| Altitude | 37000 |
| Route | BBKNG7 KERMI VLKNN ACORI MAATY5 |
| Aircraft | MD11/H-SDE1E2E3FGHIJ2J3J4J5M1RWXY/LB1D1 |
Departure
| Time | 2026-05-06 12:07 |
|---|---|
| Airport | Memphis International Airport (KMEM) |
Arrival
| Time | 2026-05-06 13:24 |
|---|---|
| Airport | Tampa International Airport (KTPA) |
| Time | Latitude | Longitude | Altitude | Speed | Heading |
|---|---|---|---|---|---|
| 2026-05-06 11:42 | 35.06018 | -89.97192 | 264 ft | 0 kts | 2° |
| 2026-05-06 11:53 | 35.06010 | -89.97192 | 265 ft | 2 kts | 357° |
| 2026-05-06 11:53 | 35.05995 | -89.97189 | 265 ft | 2 kts | 345° |
| 2026-05-06 11:53 | 35.05980 | -89.97183 | 266 ft | 2 kts | 335° |
| 2026-05-06 11:54 | 35.05968 | -89.97175 | 266 ft | 2 kts | 325° |
| 2026-05-06 11:54 | 35.05956 | -89.97163 | 266 ft | 2 kts | 315° |
| 2026-05-06 11:54 | 35.05946 | -89.97150 | 266 ft | 2 kts | 306° |
| 2026-05-06 11:54 | 35.05939 | -89.97135 | 267 ft | 1 kts | 296° |
| 2026-05-06 11:55 | 35.05933 | -89.97118 | 267 ft | 2 kts | 287° |
| 2026-05-06 11:55 | 35.05930 | -89.97101 | 267 ft | 2 kts | 276° |
| 2026-05-06 11:55 | 35.05929 | -89.97089 | 267 ft | 0 kts | 271° |
| 2026-05-06 11:55 | 35.05929 | -89.97088 | 267 ft | 0 kts | 271° |
| 2026-05-06 11:57 | 35.05929 | -89.97092 | 267 ft | 3 kts | 271° |
| 2026-05-06 11:57 | 35.05930 | -89.97169 | 267 ft | 12 kts | 271° |
| 2026-05-06 11:58 | 35.05936 | -89.97304 | 267 ft | 18 kts | 270° |
| 2026-05-06 11:58 | 35.05941 | -89.97478 | 266 ft | 21 kts | 279° |
| 2026-05-06 11:58 | 35.05980 | -89.97665 | 262 ft | 23 kts | 285° |
| 2026-05-06 11:58 | 35.06006 | -89.97862 | 262 ft | 25 kts | 274° |
| 2026-05-06 11:59 | 35.06013 | -89.98080 | 259 ft | 27 kts | 272° |
| 2026-05-06 11:59 | 35.06018 | -89.98284 | 258 ft | 23 kts | 272° |
| 2026-05-06 11:59 | 35.06022 | -89.98435 | 257 ft | 15 kts | 266° |
| 2026-05-06 11:59 | 35.05934 | -89.98508 | 257 ft | 18 kts | 176° |
| 2026-05-06 12:00 | 35.05803 | -89.98505 | 259 ft | 17 kts | 180° |
| 2026-05-06 12:00 | 35.05677 | -89.98507 | 262 ft | 18 kts | 180° |
| 2026-05-06 12:00 | 35.05543 | -89.98508 | 267 ft | 19 kts | 181° |
| 2026-05-06 12:00 | 35.05404 | -89.98510 | 270 ft | 20 kts | 180° |
| 2026-05-06 12:01 | 35.05256 | -89.98511 | 275 ft | 21 kts | 180° |
| 2026-05-06 12:01 | 35.05104 | -89.98513 | 280 ft | 22 kts | 180° |
| 2026-05-06 12:01 | 35.04940 | -89.98515 | 283 ft | 24 kts | 180° |
| 2026-05-06 12:01 | 35.04767 | -89.98510 | 286 ft | 25 kts | 179° |
| 2026-05-06 12:02 | 35.04597 | -89.98505 | 290 ft | 24 kts | 179° |
| 2026-05-06 12:02 | 35.04418 | -89.98504 | 292 ft | 26 kts | 179° |
| 2026-05-06 12:02 | 35.04240 | -89.98499 | 294 ft | 22 kts | 178° |
| 2026-05-06 12:02 | 35.04081 | -89.98494 | 295 ft | 24 kts | 178° |
| 2026-05-06 12:03 | 35.03898 | -89.98492 | 295 ft | 27 kts | 179° |
| 2026-05-06 12:03 | 35.03722 | -89.98488 | 297 ft | 25 kts | 178° |
| 2026-05-06 12:03 | 35.03542 | -89.98480 | 304 ft | 26 kts | 179° |
| 2026-05-06 12:03 | 35.03357 | -89.98478 | 308 ft | 27 kts | 179° |
| 2026-05-06 12:04 | 35.03173 | -89.98473 | 312 ft | 21 kts | 179° |
| 2026-05-06 12:04 | 35.03022 | -89.98469 | 318 ft | 21 kts | 179° |
| 2026-05-06 12:04 | 35.02867 | -89.98467 | 321 ft | 23 kts | 179° |
| 2026-05-06 12:04 | 35.02718 | -89.98463 | 327 ft | 18 kts | 179° |
| 2026-05-06 12:05 | 35.02601 | -89.98460 | 331 ft | 14 kts | 179° |
| 2026-05-06 12:05 | 35.02504 | -89.98457 | 335 ft | 11 kts | 178° |
| 2026-05-06 12:05 | 35.02428 | -89.98481 | 336 ft | 13 kts | 228° |
| 2026-05-06 12:05 | 35.02404 | -89.98598 | 335 ft | 15 kts | 269° |
| 2026-05-06 12:06 | 35.02433 | -89.98682 | 332 ft | 12 kts | 338° |
| 2026-05-06 12:06 | 35.02493 | -89.98692 | 331 ft | 10 kts | 358° |
| 2026-05-06 12:06 | 35.02795 | -89.98698 | 320 ft | 84 kts | 359° |
| 2026-05-06 12:06 | 35.03640 | -89.98724 | 298 ft | 156 kts | 359° |
| 2026-05-06 12:07 | 35.04799 | -89.98744 | 829 ft | 166 kts | 1° |
| 2026-05-06 12:07 | 35.05894 | -89.98513 | 1600 ft | 168 kts | 15° |
| 2026-05-06 12:07 | 35.07052 | -89.98061 | 2366 ft | 183 kts | 21° |
| 2026-05-06 12:07 | 35.08269 | -89.97392 | 3005 ft | 200 kts | 25° |
| 2026-05-06 12:08 | 35.09545 | -89.96526 | 3571 ft | 222 kts | 29° |
| 2026-05-06 12:08 | 35.10884 | -89.95480 | 4238 ft | 241 kts | 31° |
| 2026-05-06 12:08 | 35.12310 | -89.94299 | 4785 ft | 260 kts | 33° |
| 2026-05-06 12:08 | 35.13648 | -89.92737 | 4854 ft | 268 kts | 52° |
| 2026-05-06 12:09 | 35.14432 | -89.90718 | 4883 ft | 267 kts | 80° |
| 2026-05-06 12:09 | 35.14558 | -89.88466 | 4954 ft | 271 kts | 95° |
| 2026-05-06 12:09 | 35.14387 | -89.86188 | 6003 ft | 269 kts | 99° |
| 2026-05-06 12:09 | 35.14111 | -89.83907 | 6966 ft | 280 kts | 104° |
| 2026-05-06 12:10 | 35.13672 | -89.81580 | 7906 ft | 293 kts | 110° |
| 2026-05-06 12:10 | 35.13064 | -89.79174 | 8709 ft | 311 kts | 112° |
| 2026-05-06 12:10 | 35.12397 | -89.76732 | 9641 ft | 324 kts | 113° |
| 2026-05-06 12:10 | 35.11616 | -89.74082 | 10536 ft | 341 kts | 116° |
| 2026-05-06 12:11 | 35.10648 | -89.71339 | 11061 ft | 369 kts | 120° |
| 2026-05-06 12:11 | 35.09495 | -89.68395 | 11556 ft | 399 kts | 121° |
| 2026-05-06 12:11 | 35.08198 | -89.65132 | 12438 ft | 417 kts | 120° |
| 2026-05-06 12:11 | 35.06847 | -89.61623 | 13573 ft | 429 kts | 120° |
| 2026-05-06 12:12 | 35.05497 | -89.58061 | 14680 ft | 439 kts | 120° |
| 2026-05-06 12:12 | 35.04116 | -89.54443 | 15723 ft | 449 kts | 120° |
| 2026-05-06 12:12 | 35.02683 | -89.50710 | 16750 ft | 459 kts | 120° |
| 2026-05-06 12:12 | 35.01212 | -89.46893 | 17740 ft | 468 kts | 121° |
| 2026-05-06 12:13 | 34.99802 | -89.43224 | 18665 ft | 477 kts | 120° |
| 2026-05-06 12:13 | 34.98415 | -89.39559 | 19608 ft | 484 kts | 119° |
| 2026-05-06 12:13 | 34.97017 | -89.35847 | 20533 ft | 490 kts | 120° |
| 2026-05-06 12:13 | 34.95579 | -89.32104 | 21434 ft | 496 kts | 121° |
| 2026-05-06 12:14 | 34.94107 | -89.28271 | 22277 ft | 502 kts | 121° |
| 2026-05-06 12:14 | 34.92639 | -89.24415 | 23140 ft | 508 kts | 120° |
| 2026-05-06 12:14 | 34.91298 | -89.20406 | 23893 ft | 520 kts | 113° |
| 2026-05-06 12:14 | 34.90330 | -89.16116 | 24662 ft | 530 kts | 106° |
| 2026-05-06 12:15 | 34.89583 | -89.11705 | 25316 ft | 540 kts | 104° |
| 2026-05-06 12:15 | 34.88826 | -89.07230 | 26107 ft | 546 kts | 105° |
| 2026-05-06 12:15 | 34.88042 | -89.02668 | 26835 ft | 552 kts | 105° |
| 2026-05-06 12:15 | 34.87243 | -88.98109 | 27576 ft | 558 kts | 105° |
| 2026-05-06 12:16 | 34.86426 | -88.93465 | 28265 ft | 566 kts | 104° |
| 2026-05-06 12:16 | 34.85598 | -88.88769 | 28966 ft | 572 kts | 104° |
| 2026-05-06 12:16 | 34.84774 | -88.84023 | 29699 ft | 578 kts | 105° |
| 2026-05-06 12:16 | 34.83960 | -88.79276 | 30573 ft | 581 kts | 105° |
| 2026-05-06 12:17 | 34.83129 | -88.74470 | 31449 ft | 582 kts | 104° |
| 2026-05-06 12:17 | 34.82303 | -88.69669 | 32365 ft | 582 kts | 105° |
| 2026-05-06 12:17 | 34.81476 | -88.64809 | 33370 ft | 579 kts | 105° |
| 2026-05-06 12:17 | 34.80661 | -88.60081 | 34192 ft | 580 kts | 105° |
| 2026-05-06 12:18 | 34.79836 | -88.55248 | 34979 ft | 580 kts | 104° |
| 2026-05-06 12:18 | 34.79023 | -88.50490 | 35794 ft | 579 kts | 104° |
| 2026-05-06 12:18 | 34.78212 | -88.45696 | 36464 ft | 580 kts | 104° |
| 2026-05-06 12:18 | 34.77416 | -88.40932 | 36957 ft | 579 kts | 104° |
| 2026-05-06 12:19 | 34.76615 | -88.36172 | 36850 ft | 577 kts | 104° |
| 2026-05-06 12:19 | 34.75802 | -88.31365 | 36833 ft | 574 kts | 105° |
| 2026-05-06 12:19 | 34.74224 | -88.21935 | 36912 ft | 576 kts | 104° |
| 2026-05-06 12:20 | 34.73198 | -88.17245 | 36905 ft | 572 kts | 115° |
| 2026-05-06 12:20 | 34.71798 | -88.13234 | 36939 ft | 565 kts | 123° |
| 2026-05-06 12:20 | 34.69767 | -88.09167 | 36935 ft | 555 kts | 134° |
| 2026-05-06 12:20 | 34.67341 | -88.05654 | 36932 ft | 544 kts | 144° |
| 2026-05-06 12:21 | 34.64550 | -88.02692 | 36937 ft | 529 kts | 154° |
| 2026-05-06 12:21 | 34.61544 | -88.00169 | 36917 ft | 526 kts | 156° |
| 2026-05-06 12:21 | 34.55693 | -87.94671 | 36911 ft | 538 kts | 147° |
| 2026-05-06 12:22 | 34.50303 | -87.88329 | 36916 ft | 542 kts | 143° |
| 2026-05-06 12:22 | 34.45003 | -87.81926 | 36913 ft | 541 kts | 144° |
| 2026-05-06 12:23 | 34.39618 | -87.75535 | 36920 ft | 541 kts | 144° |
| 2026-05-06 12:23 | 34.34213 | -87.69148 | 36928 ft | 543 kts | 144° |
| 2026-05-06 12:24 | 34.28520 | -87.62388 | 36930 ft | 543 kts | 143° |
| 2026-05-06 12:24 | 34.23020 | -87.55840 | 36935 ft | 544 kts | 143° |
| 2026-05-06 12:25 | 34.17385 | -87.49116 | 36929 ft | 544 kts | 143° |
| 2026-05-06 12:25 | 34.12007 | -87.42723 | 37202 ft | 546 kts | 143° |
| 2026-05-06 12:26 | 34.09308 | -87.39502 | 37949 ft | 545 kts | 142° |
| 2026-05-06 12:26 | 34.06600 | -87.36293 | 38391 ft | 546 kts | 143° |
| 2026-05-06 12:26 | 34.03860 | -87.33116 | 38931 ft | 545 kts | 144° |
| 2026-05-06 12:26 | 34.01121 | -87.29946 | 38903 ft | 546 kts | 144° |
| 2026-05-06 12:27 | 33.95646 | -87.23550 | 39230 ft | 545 kts | 144° |
| 2026-05-06 12:27 | 33.92938 | -87.20374 | 39775 ft | 545 kts | 144° |
| 2026-05-06 12:27 | 33.90208 | -87.17204 | 40178 ft | 546 kts | 144° |
| 2026-05-06 12:28 | 33.87502 | -87.14047 | 40703 ft | 544 kts | 144° |
| 2026-05-06 12:28 | 33.84763 | -87.10825 | 41006 ft | 545 kts | 143° |
| 2026-05-06 12:28 | 33.82050 | -87.07651 | 40888 ft | 544 kts | 144° |
| 2026-05-06 12:28 | 33.79343 | -87.04492 | 40922 ft | 541 kts | 144° |
| 2026-05-06 12:29 | 33.73678 | -86.97868 | 40939 ft | 541 kts | 143° |
| 2026-05-06 12:29 | 33.67998 | -86.91422 | 40937 ft | 535 kts | 150° |
| 2026-05-06 12:30 | 33.64971 | -86.88825 | 40972 ft | 523 kts | 159° |
| 2026-05-06 12:30 | 33.61699 | -86.86746 | 40991 ft | 512 kts | 166° |
| 2026-05-06 12:30 | 33.54791 | -86.83124 | 40966 ft | 512 kts | 167° |
| 2026-05-06 12:31 | 33.47946 | -86.79417 | 40979 ft | 513 kts | 165° |
| 2026-05-06 12:31 | 33.41037 | -86.75543 | 40991 ft | 513 kts | 165° |
| 2026-05-06 12:32 | 33.34181 | -86.71717 | 40991 ft | 515 kts | 165° |
| 2026-05-06 12:32 | 33.27228 | -86.67860 | 40992 ft | 515 kts | 165° |
| 2026-05-06 12:33 | 33.20377 | -86.64042 | 40987 ft | 515 kts | 165° |
| 2026-05-06 12:33 | 33.13649 | -86.60307 | 40996 ft | 516 kts | 165° |
| 2026-05-06 12:34 | 33.06914 | -86.56553 | 40988 ft | 516 kts | 165° |
| 2026-05-06 12:34 | 32.99997 | -86.52714 | 40988 ft | 517 kts | 165° |
| 2026-05-06 12:35 | 32.92933 | -86.48779 | 40994 ft | 517 kts | 165° |
| 2026-05-06 12:35 | 32.85817 | -86.44816 | 40992 ft | 518 kts | 164° |
| 2026-05-06 12:36 | 32.78659 | -86.40923 | 41010 ft | 516 kts | 165° |
| 2026-05-06 12:36 | 32.71562 | -86.37046 | 41007 ft | 515 kts | 165° |
| 2026-05-06 12:37 | 32.65064 | -86.33516 | 40987 ft | 515 kts | 165° |
| 2026-05-06 12:37 | 32.58072 | -86.29688 | 40993 ft | 515 kts | 165° |
| 2026-05-06 12:38 | 32.51030 | -86.25858 | 41005 ft | 516 kts | 165° |
| 2026-05-06 12:38 | 32.44156 | -86.22091 | 41016 ft | 515 kts | 165° |
| 2026-05-06 12:39 | 32.37556 | -86.18508 | 41011 ft | 515 kts | 165° |
| 2026-05-06 12:39 | 32.30970 | -86.14893 | 41014 ft | 515 kts | 165° |
| 2026-05-06 12:40 | 32.24433 | -86.11347 | 41021 ft | 516 kts | 164° |
| 2026-05-06 12:40 | 32.17921 | -86.07772 | 41022 ft | 516 kts | 164° |
| 2026-05-06 12:41 | 32.11256 | -86.04144 | 41025 ft | 515 kts | 164° |
| 2026-05-06 12:41 | 32.04144 | -86.00308 | 41032 ft | 514 kts | 165° |
| 2026-05-06 12:42 | 31.97036 | -85.96479 | 41043 ft | 515 kts | 164° |
| 2026-05-06 12:42 | 31.89957 | -85.92669 | 41036 ft | 514 kts | 164° |
| 2026-05-06 12:43 | 31.82853 | -85.88832 | 41044 ft | 514 kts | 164° |
| 2026-05-06 12:43 | 31.75963 | -85.84571 | 41009 ft | 526 kts | 150° |
| 2026-05-06 12:44 | 31.69869 | -85.78376 | 41056 ft | 536 kts | 143° |
| 2026-05-06 12:44 | 31.63867 | -85.71972 | 41045 ft | 535 kts | 145° |
| 2026-05-06 12:45 | 31.57746 | -85.65721 | 41034 ft | 534 kts | 145° |
| 2026-05-06 12:46 | 31.48603 | -85.56422 | 41036 ft | 534 kts | 144° |
| 2026-05-06 12:46 | 31.42560 | -85.50226 | 41044 ft | 534 kts | 145° |
| 2026-05-06 12:47 | 31.36692 | -85.44215 | 41044 ft | 533 kts | 144° |
| 2026-05-06 12:47 | 31.30824 | -85.38197 | 41048 ft | 533 kts | 144° |
| 2026-05-06 12:48 | 31.25011 | -85.32233 | 41030 ft | 533 kts | 145° |
| 2026-05-06 12:48 | 31.19221 | -85.26296 | 41031 ft | 531 kts | 145° |
| 2026-05-06 12:49 | 31.13394 | -85.20304 | 41030 ft | 532 kts | 144° |
| 2026-05-06 12:49 | 31.07550 | -85.14368 | 41028 ft | 531 kts | 145° |
| 2026-05-06 12:50 | 31.01613 | -85.08404 | 41038 ft | 532 kts | 145° |
| 2026-05-06 12:50 | 30.95605 | -85.02328 | 41040 ft | 532 kts | 145° |
| 2026-05-06 12:51 | 30.89616 | -84.96277 | 41052 ft | 534 kts | 144° |
| 2026-05-06 12:51 | 30.83715 | -84.90316 | 41050 ft | 532 kts | 145° |
| 2026-05-06 12:52 | 30.78082 | -84.84621 | 41055 ft | 533 kts | 144° |
| 2026-05-06 12:52 | 30.72220 | -84.78824 | 41066 ft | 532 kts | 145° |
| 2026-05-06 12:53 | 30.66512 | -84.73128 | 41062 ft | 534 kts | 145° |
| 2026-05-06 12:53 | 30.60710 | -84.67355 | 41047 ft | 534 kts | 144° |
| 2026-05-06 12:54 | 30.55013 | -84.61645 | 41049 ft | 534 kts | 144° |
| 2026-05-06 12:54 | 30.49273 | -84.55931 | 41053 ft | 535 kts | 144° |
| 2026-05-06 12:55 | 30.43524 | -84.50164 | 41045 ft | 535 kts | 144° |
| 2026-05-06 12:55 | 30.37720 | -84.44370 | 41048 ft | 535 kts | 144° |
| 2026-05-06 12:56 | 30.31872 | -84.38515 | 41044 ft | 535 kts | 145° |
| 2026-05-06 12:56 | 30.26014 | -84.32816 | 41043 ft | 537 kts | 144° |
| 2026-05-06 12:57 | 30.20023 | -84.26887 | 41033 ft | 537 kts | 145° |
| 2026-05-06 12:57 | 30.13901 | -84.20867 | 41030 ft | 537 kts | 144° |
| 2026-05-06 12:58 | 30.07885 | -84.14922 | 41050 ft | 537 kts | 144° |
| 2026-05-06 12:58 | 30.01779 | -84.08879 | 41048 ft | 538 kts | 144° |
| 2026-05-06 12:59 | 29.95789 | -84.02976 | 41040 ft | 539 kts | 144° |
| 2026-05-06 12:59 | 29.89934 | -83.97166 | 41034 ft | 540 kts | 144° |
| 2026-05-06 13:00 | 29.83804 | -83.91110 | 40474 ft | 542 kts | 144° |
| 2026-05-06 13:00 | 29.80683 | -83.88387 | 39286 ft | 540 kts | 153° |
| 2026-05-06 13:00 | 29.77138 | -83.85995 | 38371 ft | 535 kts | 158° |
| 2026-05-06 13:00 | 29.73579 | -83.83845 | 37440 ft | 535 kts | 158° |
| 2026-05-06 13:01 | 29.69957 | -83.81662 | 36347 ft | 538 kts | 157° |
| 2026-05-06 13:01 | 29.66356 | -83.79413 | 35043 ft | 536 kts | 156° |
| 2026-05-06 13:01 | 29.62756 | -83.77106 | 33530 ft | 540 kts | 155° |
| 2026-05-06 13:01 | 29.59215 | -83.74814 | 32652 ft | 538 kts | 155° |
| 2026-05-06 13:02 | 29.55654 | -83.72502 | 30993 ft | 554 kts | 155° |
| 2026-05-06 13:02 | 29.51986 | -83.70103 | 29238 ft | 567 kts | 155° |
| 2026-05-06 13:02 | 29.48554 | -83.67901 | 28922 ft | 552 kts | 155° |
| 2026-05-06 13:02 | 29.45179 | -83.65766 | 27859 ft | 556 kts | 155° |
| 2026-05-06 13:03 | 29.41796 | -83.63616 | 27054 ft | 554 kts | 154° |
| 2026-05-06 13:03 | 29.38332 | -83.61385 | 26199 ft | 553 kts | 154° |
| 2026-05-06 13:03 | 29.34998 | -83.59232 | 25341 ft | 552 kts | 153° |
| 2026-05-06 13:03 | 29.31659 | -83.57083 | 24474 ft | 550 kts | 153° |
| 2026-05-06 13:04 | 29.28063 | -83.54780 | 23441 ft | 538 kts | 153° |
| 2026-05-06 13:04 | 29.24584 | -83.52546 | 22662 ft | 521 kts | 153° |
| 2026-05-06 13:04 | 29.21210 | -83.50378 | 21955 ft | 521 kts | 153° |
| 2026-05-06 13:04 | 29.17797 | -83.48224 | 21384 ft | 514 kts | 153° |
| 2026-05-06 13:05 | 29.14488 | -83.46152 | 20981 ft | 508 kts | 153° |
| 2026-05-06 13:05 | 29.11315 | -83.44149 | 20523 ft | 507 kts | 152° |
| 2026-05-06 13:05 | 29.08052 | -83.42071 | 19999 ft | 503 kts | 152° |
| 2026-05-06 13:05 | 29.04827 | -83.40025 | 19475 ft | 499 kts | 152° |
| 2026-05-06 13:06 | 29.01617 | -83.38007 | 18963 ft | 496 kts | 152° |
| 2026-05-06 13:06 | 28.98427 | -83.35995 | 18458 ft | 492 kts | 152° |
| 2026-05-06 13:06 | 28.95231 | -83.33959 | 17941 ft | 488 kts | 152° |
| 2026-05-06 13:06 | 28.92091 | -83.31966 | 17450 ft | 484 kts | 152° |
| 2026-05-06 13:07 | 28.88970 | -83.30001 | 16966 ft | 480 kts | 152° |
| 2026-05-06 13:07 | 28.85835 | -83.28024 | 16453 ft | 477 kts | 152° |
| 2026-05-06 13:07 | 28.82821 | -83.26105 | 15964 ft | 472 kts | 152° |
| 2026-05-06 13:07 | 28.79819 | -83.24199 | 15505 ft | 469 kts | 152° |
| 2026-05-06 13:08 | 28.76839 | -83.22320 | 15043 ft | 464 kts | 151° |
| 2026-05-06 13:08 | 28.73845 | -83.20425 | 14597 ft | 461 kts | 151° |
| 2026-05-06 13:08 | 28.70915 | -83.18563 | 14144 ft | 457 kts | 151° |
| 2026-05-06 13:08 | 28.67983 | -83.16705 | 13679 ft | 453 kts | 151° |
| 2026-05-06 13:09 | 28.65054 | -83.14855 | 13234 ft | 450 kts | 150° |
| 2026-05-06 13:09 | 28.62212 | -83.13055 | 12887 ft | 447 kts | 150° |
| 2026-05-06 13:09 | 28.59382 | -83.11258 | 12643 ft | 445 kts | 150° |
| 2026-05-06 13:09 | 28.56583 | -83.09484 | 12377 ft | 442 kts | 150° |
| 2026-05-06 13:10 | 28.53735 | -83.07694 | 11689 ft | 440 kts | 150° |
| 2026-05-06 13:10 | 28.50983 | -83.05982 | 11161 ft | 412 kts | 150° |
| 2026-05-06 13:10 | 28.48454 | -83.04399 | 10957 ft | 383 kts | 150° |
| 2026-05-06 13:10 | 28.46128 | -83.02934 | 10904 ft | 354 kts | 150° |
| 2026-05-06 13:11 | 28.44004 | -83.01595 | 11005 ft | 333 kts | 150° |
| 2026-05-06 13:11 | 28.41930 | -83.00290 | 10966 ft | 322 kts | 150° |
| 2026-05-06 13:11 | 28.39881 | -82.99006 | 10632 ft | 318 kts | 150° |
| 2026-05-06 13:11 | 28.37850 | -82.97740 | 10285 ft | 310 kts | 150° |
| 2026-05-06 13:12 | 28.35874 | -82.96508 | 9984 ft | 294 kts | 150° |
| 2026-05-06 13:12 | 28.33953 | -82.95306 | 9335 ft | 286 kts | 150° |
| 2026-05-06 13:12 | 28.32070 | -82.94125 | 8685 ft | 280 kts | 150° |
| 2026-05-06 13:12 | 28.30211 | -82.92962 | 8023 ft | 276 kts | 150° |
| 2026-05-06 13:13 | 28.28455 | -82.91682 | 7338 ft | 270 kts | 137° |
| 2026-05-06 13:13 | 28.27336 | -82.89885 | 6660 ft | 264 kts | 109° |
| 2026-05-06 13:13 | 28.27046 | -82.87729 | 6014 ft | 256 kts | 89° |
| 2026-05-06 13:13 | 28.27155 | -82.85553 | 5377 ft | 253 kts | 83° |
| 2026-05-06 13:14 | 28.27351 | -82.83431 | 5086 ft | 243 kts | 83° |
| 2026-05-06 13:14 | 28.27518 | -82.81368 | 4985 ft | 234 kts | 85° |
| 2026-05-06 13:14 | 28.27623 | -82.79387 | 4965 ft | 228 kts | 86° |
| 2026-05-06 13:14 | 28.27683 | -82.77416 | 4969 ft | 228 kts | 88° |
| 2026-05-06 13:15 | 28.27721 | -82.75511 | 4971 ft | 228 kts | 88° |
| 2026-05-06 13:15 | 28.27757 | -82.73645 | 4969 ft | 227 kts | 88° |
| 2026-05-06 13:15 | 28.27799 | -82.71789 | 4975 ft | 228 kts | 88° |
| 2026-05-06 13:15 | 28.27848 | -82.69944 | 4947 ft | 225 kts | 87° |
| 2026-05-06 13:16 | 28.27901 | -82.68184 | 4428 ft | 228 kts | 88° |
| 2026-05-06 13:16 | 28.27954 | -82.66381 | 3950 ft | 226 kts | 88° |
| 2026-05-06 13:16 | 28.28001 | -82.64530 | 3555 ft | 219 kts | 89° |
| 2026-05-06 13:16 | 28.28042 | -82.62828 | 3404 ft | 204 kts | 89° |
| 2026-05-06 13:17 | 28.28043 | -82.61121 | 3129 ft | 195 kts | 100° |
| 2026-05-06 13:17 | 28.27389 | -82.59714 | 3021 ft | 183 kts | 136° |
| 2026-05-06 13:17 | 28.26223 | -82.58830 | 2994 ft | 186 kts | 155° |
| 2026-05-06 13:17 | 28.24994 | -82.58051 | 2964 ft | 184 kts | 153° |
| 2026-05-06 13:18 | 28.23712 | -82.57431 | 2968 ft | 185 kts | 158° |
| 2026-05-06 13:18 | 28.22468 | -82.56895 | 2973 ft | 185 kts | 158° |
| 2026-05-06 13:18 | 28.21213 | -82.56338 | 2965 ft | 186 kts | 157° |
| 2026-05-06 13:18 | 28.20005 | -82.55762 | 2967 ft | 185 kts | 156° |
| 2026-05-06 13:19 | 28.18813 | -82.55166 | 2959 ft | 186 kts | 155° |
| 2026-05-06 13:19 | 28.17635 | -82.54566 | 2960 ft | 186 kts | 155° |
| 2026-05-06 13:19 | 28.16425 | -82.54057 | 2953 ft | 185 kts | 164° |
| 2026-05-06 13:19 | 28.15145 | -82.53792 | 3031 ft | 186 kts | 172° |
| 2026-05-06 13:20 | 28.13825 | -82.53696 | 2734 ft | 190 kts | 177° |
| 2026-05-06 13:20 | 28.12554 | -82.53707 | 2478 ft | 174 kts | 180° |
| 2026-05-06 13:20 | 28.11374 | -82.53758 | 2272 ft | 163 kts | 180° |
| 2026-05-06 13:20 | 28.10278 | -82.53809 | 2088 ft | 153 kts | 180° |
| 2026-05-06 13:21 | 28.09211 | -82.53844 | 1903 ft | 149 kts | 179° |
| 2026-05-06 13:21 | 28.08165 | -82.53872 | 1726 ft | 152 kts | 179° |
| 2026-05-06 13:21 | 28.07101 | -82.53897 | 1498 ft | 151 kts | 179° |
| 2026-05-06 13:21 | 28.06065 | -82.53925 | 1292 ft | 150 kts | 179° |
| 2026-05-06 13:22 | 28.05009 | -82.53970 | 1103 ft | 151 kts | 180° |
| 2026-05-06 13:22 | 28.03971 | -82.54007 | 916 ft | 147 kts | 179° |
| 2026-05-06 13:22 | 28.02934 | -82.54024 | 759 ft | 149 kts | 178° |
| 2026-05-06 13:22 | 28.01879 | -82.54046 | 552 ft | 151 kts | 178° |
| 2026-05-06 13:23 | 28.00812 | -82.54084 | 337 ft | 151 kts | 180° |
| 2026-05-06 13:23 | 27.99762 | -82.54121 | 130 ft | 151 kts | 180° |
| 2026-05-06 13:23 | 27.98707 | -82.54157 | 24 ft | 146 kts | 180° |
| 2026-05-06 13:23 | 27.97977 | -82.54178 | 23 ft | 52 kts | 182° |
| 2026-05-06 13:24 | 27.97783 | -82.54176 | 22 ft | 20 kts | 165° |
| 2026-05-06 13:24 | 27.97665 | -82.54109 | 21 ft | 14 kts | 151° |
| 2026-05-06 13:24 | 27.97584 | -82.54073 | 20 ft | 12 kts | 169° |
| 2026-05-06 13:24 | 27.97509 | -82.54012 | 20 ft | 14 kts | 109° |
| 2026-05-06 13:25 | 27.97496 | -82.53903 | 20 ft | 13 kts | 109° |
| 2026-05-06 13:25 | 27.97447 | -82.53812 | 22 ft | 14 kts | 123° |
| 2026-05-06 13:25 | 27.97386 | -82.53707 | 23 ft | 17 kts | 122° |
| 2026-05-06 13:25 | 27.97334 | -82.53577 | 23 ft | 18 kts | 106° |
| 2026-05-06 13:26 | 27.97313 | -82.53426 | 24 ft | 18 kts | 92° |
| 2026-05-06 13:26 | 27.97310 | -82.53279 | 26 ft | 19 kts | 92° |
| 2026-05-06 13:26 | 27.97305 | -82.53116 | 26 ft | 22 kts | 92° |
| 2026-05-06 13:26 | 27.97300 | -82.52972 | 26 ft | 17 kts | 91° |
| 2026-05-06 13:27 | 27.97296 | -82.52832 | 29 ft | 17 kts | 91° |
| 2026-05-06 13:27 | 27.97294 | -82.52696 | 29 ft | 17 kts | 91° |
| 2026-05-06 13:27 | 27.97290 | -82.52555 | 29 ft | 17 kts | 91° |
| 2026-05-06 13:27 | 27.97286 | -82.52412 | 30 ft | 16 kts | 92° |
| 2026-05-06 13:28 | 27.97283 | -82.52302 | 32 ft | 12 kts | 91° |
| 2026-05-06 13:28 | 27.97282 | -82.52207 | 33 ft | 10 kts | 85° |
| 2026-05-06 13:28 | 27.97331 | -82.52150 | 32 ft | 10 kts | 17° |
| 2026-05-06 13:28 | 27.97408 | -82.52142 | 33 ft | 10 kts | 2° |
| 2026-05-06 13:29 | 27.97486 | -82.52138 | 33 ft | 7 kts | 1° |
| 2026-05-06 13:29 | 27.97525 | -82.52132 | 33 ft | 3 kts | 32° |
| 2026-05-06 13:29 | 27.97535 | -82.52110 | 33 ft | 4 kts | 77° |
| 2026-05-06 13:29 | 27.97537 | -82.52075 | 33 ft | 2 kts | 89° |
| 2026-05-06 13:30 | 27.97538 | -82.52055 | 32 ft | 1 kts | 89° |